Time;durP1;ratioP1;P1;durP2;ratioP2;P2;SDS_P1;SDS_P2;PMS_P1;PMS_P2;Temp;Humidity;BMP_temperature;BMP_pressure;BME280_temperature;BME280_humidity;BME280_pressure;Samples;Min_cycle;Max_cycle;Signal;HPM_P1;HPM_P2
2021/05/09 00:01:02;;;;;;;1.30;1.20;;;;;;;12.28;48.77;99803.13;5087430;28;20680;-81
2021/05/09 00:03:28;;;;;;;1.27;1.00;;;;;;;12.27;48.49;99802.28;5085371;28;20222;-81
2021/05/09 00:05:54;;;;;;;1.40;1.30;;;;;;;12.29;49.69;99804.84;5085596;28;20209;-80
2021/05/09 00:08:20;;;;;;;2.53;1.50;;;;;;;12.28;49.50;99798.75;5085636;28;20225;-79
2021/05/09 00:10:46;;;;;;;1.27;1.03;;;;;;;12.24;49.31;99802.38;5086203;28;20209;-80
2021/05/09 00:13:13;;;;;;;2.80;1.40;;;;;;;12.27;49.11;99797.03;5085424;28;20219;-80
2021/05/09 00:15:39;;;;;;;1.20;1.10;;;;;;;12.30;49.12;99790.84;5085021;28;20692;-80
2021/05/09 00:18:05;;;;;;;1.70;1.27;;;;;;;12.32;48.66;99797.72;5085547;28;20245;-80
2021/05/09 00:20:31;;;;;;;1.63;1.17;;;;;;;12.34;48.95;99781.97;5085841;28;20680;-80
2021/05/09 00:22:57;;;;;;;0.97;0.97;;;;;;;12.35;49.42;99780.19;5089486;28;20729;-81
2021/05/09 00:25:23;;;;;;;1.33;1.23;;;;;;;12.32;49.20;99789.03;5089869;28;20271;-80
2021/05/09 00:27:49;;;;;;;1.37;1.20;;;;;;;12.30;49.36;99786.44;5090092;28;20693;-78
2021/05/09 00:30:18;;;;;;;1.30;1.20;;;;;;;12.32;49.41;99796.88;5090073;28;20301;-79
2021/05/09 00:32:44;;;;;;;1.27;1.17;;;;;;;12.34;49.69;99800.28;5089362;28;20234;-79
2021/05/09 00:35:11;;;;;;;1.33;1.23;;;;;;;12.31;49.67;99795.19;5090410;28;20727;-79
2021/05/09 00:37:37;;;;;;;1.30;1.20;;;;;;;12.34;49.29;99797.66;5090979;28;20260;-79
2021/05/09 00:40:03;;;;;;;1.30;1.10;;;;;;;12.36;48.87;99806.31;5090110;28;20211;-80
2021/05/09 00:42:29;;;;;;;1.53;1.10;;;;;;;12.37;49.54;99794.06;5090189;28;20578;-79
2021/05/09 00:44:55;;;;;;;1.60;1.10;;;;;;;12.41;49.60;99795.69;5089526;28;20210;-79
2021/05/09 00:47:22;;;;;;;2.00;1.30;;;;;;;12.43;49.05;99792.09;5089155;28;20262;-79
2021/05/09 00:49:48;;;;;;;1.60;1.20;;;;;;;12.43;49.30;99789.50;5089082;28;20268;-78
2021/05/09 00:52:14;;;;;;;1.47;1.23;;;;;;;12.45;49.53;99798.13;5089551;28;20288;-78
2021/05/09 00:54:44;;;;;;;1.30;1.20;;;;;;;12.42;49.23;99798.22;5087941;28;20215;-79
2021/05/09 00:57:13;;;;;;;1.60;1.10;;;;;;;12.44;49.58;99796.41;5089374;28;20231;-79
2021/05/09 00:59:43;;;;;;;1.73;1.30;;;;;;;12.46;49.15;99793.75;5089919;28;20204;-79
2021/05/09 01:02:09;;;;;;;2.43;1.40;;;;;;;12.43;48.91;99799.09;5089686;28;20220;-78
2021/05/09 01:04:36;;;;;;;1.30;1.20;;;;;;;12.43;50.07;99799.97;5088839;28;21248;-80
2021/05/09 01:07:02;;;;;;;1.40;1.30;;;;;;;12.47;49.48;99793.69;5088555;28;20241;-78
2021/05/09 01:09:28;;;;;;;1.43;1.30;;;;;;;12.50;49.73;99787.47;5088065;28;20223;-79
2021/05/09 01:11:54;;;;;;;1.70;1.07;;;;;;;12.48;49.88;99795.38;5088052;28;20358;-78
2021/05/09 01:14:20;;;;;;;1.63;1.13;;;;;;;12.48;50.03;99789.31;5087875;28;20238;-78
2021/05/09 01:16:45;;;;;;;1.13;1.07;;;;;;;12.43;50.09;99799.09;5088675;28;20668;-78
2021/05/09 01:19:11;;;;;;;1.17;1.07;;;;;;;12.48;49.65;99790.16;5087107;28;20214;-78
2021/05/09 01:21:38;;;;;;;1.43;1.33;;;;;;;12.49;50.00;99780.56;5088627;28;20728;-79
2021/05/09 01:24:05;;;;;;;1.67;1.10;;;;;;;12.41;50.44;99793.94;5088419;28;20457;-79
2021/05/09 01:26:31;;;;;;;1.40;1.30;;;;;;;12.43;50.38;99780.78;5088194;28;20249;-80
2021/05/09 01:28:57;;;;;;;1.63;1.50;;;;;;;12.42;50.34;99781.69;5087873;28;20246;-79
2021/05/09 01:31:22;;;;;;;1.20;1.10;;;;;;;12.39;50.37;99787.91;5088698;28;20205;-79
2021/05/09 01:33:48;;;;;;;1.50;1.40;;;;;;;12.38;50.41;99780.94;5086466;28;20237;-79
2021/05/09 01:36:14;;;;;;;1.30;1.13;;;;;;;12.39;50.66;99774.81;5088102;28;20387;-78
2021/05/09 01:38:41;;;;;;;1.20;1.10;;;;;;;12.32;50.24;99775.94;5088607;28;20245;-79
2021/05/09 01:41:07;;;;;;;1.83;1.17;;;;;;;12.36;50.74;99777.53;5087784;28;20226;-79
2021/05/09 01:43:34;;;;;;;1.50;1.40;;;;;;;12.31;51.00;99775.09;5087930;28;21248;-79
2021/05/09 01:46:00;;;;;;;1.63;1.53;;;;;;;12.23;50.89;99769.28;5088328;28;20232;-79
2021/05/09 01:48:26;;;;;;;1.30;1.20;;;;;;;12.24;51.08;99776.22;5087521;28;20230;-79
2021/05/09 01:50:51;;;;;;;1.17;1.17;;;;;;;12.27;51.47;99770.88;5087822;28;20302;-79
2021/05/09 01:53:17;;;;;;;1.20;1.10;;;;;;;12.25;51.38;99779.66;5088284;28;20225;-79
2021/05/09 01:55:44;;;;;;;1.30;1.20;;;;;;;12.24;51.42;99773.59;5087948;28;20244;-78
2021/05/09 01:58:10;;;;;;;1.37;1.30;;;;;;;12.24;51.19;99780.59;5088739;28;20229;-79
2021/05/09 02:00:36;;;;;;;1.17;1.07;;;;;;;12.23;51.51;99777.13;5089603;28;20245;-79
2021/05/09 02:03:02;;;;;;;2.73;1.40;;;;;;;12.21;51.75;99775.47;5086838;28;20250;-78
2021/05/09 02:05:27;;;;;;;1.40;1.30;;;;;;;12.18;51.69;99780.81;5088660;28;20212;-78
2021/05/09 02:07:53;;;;;;;1.00;1.00;;;;;;;12.19;51.46;99783.38;5088285;28;20233;-79
2021/05/09 02:10:20;;;;;;;2.50;1.70;;;;;;;12.15;52.37;99787.03;5087564;28;20205;-79
2021/05/09 02:12:46;;;;;;;1.40;1.30;;;;;;;12.13;52.55;99778.38;5087574;28;20253;-79
2021/05/09 02:15:13;;;;;;;1.37;1.27;;;;;;;12.13;52.51;99778.38;5088053;28;20279;-79
2021/05/09 02:17:41;;;;;;;1.33;1.23;;;;;;;12.10;52.69;99773.25;5088082;28;20870;-79
2021/05/09 02:20:08;;;;;;;2.03;1.20;;;;;;;12.05;53.07;99767.31;5087752;28;20213;-80
2021/05/09 02:22:34;;;;;;;1.40;1.30;;;;;;;12.03;53.56;99770.00;5087640;28;20267;-79
2021/05/09 02:25:00;;;;;;;1.50;1.40;;;;;;;11.94;53.89;99775.56;5087057;28;20207;-78
2021/05/09 02:27:26;;;;;;;1.47;1.33;;;;;;;11.81;54.72;99780.31;5086623;28;20226;-79
2021/05/09 02:29:52;;;;;;;1.50;1.40;;;;;;;11.86;54.59;99774.94;5087422;28;20229;-77
2021/05/09 02:32:18;;;;;;;1.60;1.50;;;;;;;11.84;54.24;99771.53;5087115;28;20213;-80
2021/05/09 02:34:44;;;;;;;1.93;1.33;;;;;;;11.78;54.57;99762.13;5085671;28;20215;-79
2021/05/09 02:37:10;;;;;;;0.97;0.97;;;;;;;11.77;55.21;99770.03;5085765;28;20225;-78
2021/05/09 02:39:36;;;;;;;1.37;1.17;;;;;;;11.78;55.37;99764.75;5086641;28;20213;-78
2021/05/09 02:42:02;;;;;;;1.30;1.20;;;;;;;11.72;55.37;99770.19;5087375;28;20288;-79
2021/05/09 02:44:28;;;;;;;1.73;1.63;;;;;;;11.79;54.90;99774.28;5086081;28;20257;-78
2021/05/09 02:46:55;;;;;;;1.80;1.23;;;;;;;11.83;54.47;99765.47;5087592;28;20492;-79
2021/05/09 02:49:21;;;;;;;1.30;1.20;;;;;;;11.89;54.44;99769.63;5085771;28;20205;-79
2021/05/09 02:51:46;;;;;;;2.57;1.40;;;;;;;11.90;55.17;99779.19;5086600;28;20205;-79
2021/05/09 02:54:12;;;;;;;1.03;1.03;;;;;;;11.90;54.52;99772.19;5086761;28;20295;-79
2021/05/09 02:56:38;;;;;;;1.50;1.40;;;;;;;11.86;56.16;99778.41;5086044;28;20241;-77
2021/05/09 02:59:04;;;;;;;1.20;1.10;;;;;;;11.91;57.13;99773.03;5086768;28;20643;-79
2021/05/09 03:01:30;;;;;;;1.30;1.20;;;;;;;11.91;56.79;99779.16;5085965;28;20779;-79
2021/05/09 03:03:57;;;;;;;1.37;1.10;;;;;;;11.83;59.67;99773.31;5085699;28;20769;-79
2021/05/09 03:06:23;;;;;;;1.63;1.20;;;;;;;11.68;58.38;99776.44;5087106;28;20535;-79
2021/05/09 03:08:48;;;;;;;1.93;1.20;;;;;;;11.63;58.31;99776.56;5086047;28;20231;-79
2021/05/09 03:11:14;;;;;;;1.20;1.10;;;;;;;11.51;60.57;99772.59;5086151;28;20209;-79
2021/05/09 03:13:40;;;;;;;1.37;1.10;;;;;;;11.43;60.12;99771.16;5085460;28;20213;-79
2021/05/09 03:16:06;;;;;;;1.60;1.50;;;;;;;11.35;62.01;99768.81;5086419;28;20209;-79
2021/05/09 03:18:32;;;;;;;1.60;1.50;;;;;;;11.32;62.20;99772.38;5086371;28;20236;-79
2021/05/09 03:20:59;;;;;;;1.50;1.40;;;;;;;11.28;62.76;99770.78;5086687;28;20591;-79
2021/05/09 03:23:25;;;;;;;1.60;1.20;;;;;;;11.20;63.20;99766.69;5086965;28;20220;-80
2021/05/09 03:25:51;;;;;;;1.60;1.50;;;;;;;11.15;62.81;99766.00;5086419;28;20213;-79
2021/05/09 03:28:17;;;;;;;1.20;1.10;;;;;;;11.13;62.60;99769.50;5086936;28;20771;-79
2021/05/09 03:30:43;;;;;;;1.93;1.37;;;;;;;11.10;61.00;99768.78;5087063;28;20215;-79
2021/05/09 03:33:09;;;;;;;2.00;1.83;;;;;;;11.10;60.32;99761.78;5084937;28;20209;-78
2021/05/09 03:35:35;;;;;;;1.67;1.23;;;;;;;11.06;62.67;99767.13;5087120;28;20699;-79
2021/05/09 03:38:02;;;;;;;1.40;1.17;;;;;;;11.02;61.94;99761.19;5085184;28;20226;-79
2021/05/09 03:40:28;;;;;;;2.97;1.60;;;;;;;11.02;61.38;99762.91;5085935;28;20288;-80
2021/05/09 03:42:54;;;;;;;1.77;1.37;;;;;;;11.01;62.77;99769.91;5085446;28;20253;-79
2021/05/09 03:45:20;;;;;;;1.53;1.43;;;;;;;11.05;60.08;99749.75;5085814;28;20250;-79
2021/05/09 03:47:46;;;;;;;1.40;1.30;;;;;;;11.01;62.11;99749.00;5085081;28;20254;-79
2021/05/09 03:50:12;;;;;;;1.40;1.30;;;;;;;11.05;62.03;99749.75;5085866;28;20203;-79
2021/05/09 03:52:38;;;;;;;2.10;1.30;;;;;;;11.07;60.57;99751.41;5085497;28;20205;-77
2021/05/09 03:55:06;;;;;;;2.07;1.50;;;;;;;11.10;61.53;99756.56;5085412;28;20629;-79
2021/05/09 03:57:31;;;;;;;1.67;1.17;;;;;;;11.06;61.94;99752.34;5089667;28;20231;-79
2021/05/09 03:59:57;;;;;;;1.20;1.10;;;;;;;11.21;59.06;99752.72;5089988;28;20204;-78
2021/05/09 04:02:23;;;;;;;1.37;1.27;;;;;;;11.36;58.84;99754.84;5088973;28;20257;-79
2021/05/09 04:04:49;;;;;;;1.80;1.30;;;;;;;11.39;59.50;99761.72;5088905;28;21092;-79
2021/05/09 04:07:15;;;;;;;2.40;1.37;;;;;;;11.40;60.15;99756.47;5088846;28;20241;-77
2021/05/09 04:09:41;;;;;;;1.33;1.23;;;;;;;11.43;59.55;99756.34;5089792;28;20219;-79
2021/05/09 04:12:08;;;;;;;1.27;1.17;;;;;;;11.44;59.72;99747.59;5088099;28;20252;-79
2021/05/09 04:14:34;;;;;;;1.50;1.40;;;;;;;11.48;59.49;99750.97;5088942;28;21209;-78
2021/05/09 04:17:00;;;;;;;1.60;1.47;;;;;;;11.54;58.96;99750.75;5089682;28;20746;-79
2021/05/09 04:19:26;;;;;;;1.33;1.20;;;;;;;11.60;58.69;99753.16;5088422;28;20230;-78
2021/05/09 04:21:52;;;;;;;1.63;1.20;;;;;;;11.63;59.65;99745.19;5089446;28;20316;-80
2021/05/09 04:24:18;;;;;;;1.57;1.47;;;;;;;11.67;58.80;99754.69;5089123;28;20284;-79
2021/05/09 04:26:44;;;;;;;1.23;1.23;;;;;;;11.70;58.47;99761.56;5089284;28;20224;-78
2021/05/09 04:29:11;;;;;;;1.30;1.20;;;;;;;11.76;58.77;99745.66;5089984;28;20289;-79
2021/05/09 04:31:37;;;;;;;1.17;1.17;;;;;;;11.84;57.25;99742.75;5089176;28;20621;-79
2021/05/09 04:34:03;;;;;;;1.37;1.27;;;;;;;11.92;57.12;99746.00;5088549;28;20205;-79
2021/05/09 04:36:29;;;;;;;3.53;1.10;;;;;;;11.92;57.59;99743.38;5089477;28;20283;-79
2021/05/09 04:38:55;;;;;;;1.57;1.40;;;;;;;11.97;57.86;99753.66;5089363;28;20225;-79
2021/05/09 04:41:20;;;;;;;3.13;1.37;;;;;;;12.01;57.89;99739.56;5089479;28;20261;-79
2021/05/09 04:43:46;;;;;;;1.00;1.00;;;;;;;12.03;59.77;99743.84;5088292;28;20252;-79
2021/05/09 04:46:13;;;;;;;2.60;1.37;;;;;;;12.00;59.48;99738.72;5090018;28;20233;-79
2021/05/09 04:48:39;;;;;;;1.30;1.20;;;;;;;11.99;58.38;99744.88;5089008;28;20633;-79
2021/05/09 04:51:05;;;;;;;1.20;1.10;;;;;;;12.00;58.29;99741.34;5089327;28;20234;-79
2021/05/09 04:53:32;;;;;;;1.27;1.27;;;;;;;12.04;58.93;99747.31;5089146;28;20213;-79
2021/05/09 04:56:00;;;;;;;1.27;1.17;;;;;;;12.00;60.25;99748.34;5088588;28;20217;-79
2021/05/09 04:58:27;;;;;;;1.33;1.23;;;;;;;11.99;58.94;99744.00;5088610;28;20230;-79
2021/05/09 05:00:53;;;;;;;1.20;1.20;;;;;;;11.99;60.01;99747.50;5088035;28;20263;-79
2021/05/09 05:03:20;;;;;;;1.37;1.10;;;;;;;11.94;62.98;99751.16;5088502;28;20218;-79
2021/05/09 05:05:46;;;;;;;1.37;1.27;;;;;;;11.94;60.11;99748.56;5089679;28;20218;-79
2021/05/09 05:08:12;;;;;;;1.20;1.10;;;;;;;11.98;60.32;99752.78;5088356;28;20232;-78
2021/05/09 05:10:38;;;;;;;1.20;1.10;;;;;;;12.00;59.75;99757.03;5088447;28;20202;-79
2021/05/09 05:13:15;;;;;;;6.57;1.47;;;;;;;12.07;58.15;99741.94;5087442;28;20268;-79
2021/05/09 05:15:41;;;;;;;1.37;1.27;;;;;;;12.16;57.29;99743.41;5088818;28;20461;-78
2021/05/09 05:18:07;;;;;;;1.57;1.17;;;;;;;12.27;59.09;99744.72;5088506;28;20232;-79
2021/05/09 05:20:34;;;;;;;1.80;1.20;;;;;;;12.35;58.68;99741.81;5087897;28;20231;-80
2021/05/09 05:23:00;;;;;;;1.00;1.00;;;;;;;12.42;58.75;99747.66;5088451;28;20937;-79
2021/05/09 05:25:26;;;;;;;1.53;1.43;;;;;;;12.50;56.42;99745.59;5088251;28;20297;-79
2021/05/09 05:27:51;;;;;;;1.30;1.20;;;;;;;12.57;57.87;99746.25;5088404;28;20261;-78
2021/05/09 05:30:18;;;;;;;1.20;1.20;;;;;;;12.61;56.98;99738.19;5089310;28;20223;-79
2021/05/09 05:32:47;;;;;;;1.30;1.20;;;;;;;12.73;56.52;99738.63;5088021;28;20242;-79
2021/05/09 05:35:13;;;;;;;2.40;1.10;;;;;;;12.82;55.34;99738.25;5088669;28;20208;-80
2021/05/09 05:37:39;;;;;;;1.53;1.13;;;;;;;12.92;55.27;99726.50;5088276;28;21420;-79
2021/05/09 05:40:06;;;;;;;1.20;1.10;;;;;;;12.98;54.91;99735.88;5088753;28;20206;-80
2021/05/09 05:42:32;;;;;;;1.10;1.00;;;;;;;13.08;54.42;99729.34;5088653;28;20271;-80
2021/05/09 05:44:58;;;;;;;1.53;1.03;;;;;;;13.11;56.63;99731.84;5088764;28;20266;-78
2021/05/09 05:47:24;;;;;;;1.20;1.10;;;;;;;13.19;55.10;99736.78;5088361;28;20257;-79
2021/05/09 05:49:50;;;;;;;1.53;1.20;;;;;;;13.26;54.31;99739.09;5087408;28;20212;-79
2021/05/09 05:52:16;;;;;;;1.00;0.90;;;;;;;13.29;54.51;99735.50;5088293;28;20607;-79
2021/05/09 05:54:42;;;;;;;1.73;1.20;;;;;;;13.39;52.97;99738.63;5088014;28;20218;-79
2021/05/09 05:57:08;;;;;;;1.20;1.10;;;;;;;13.44;53.42;99739.28;5088725;28;20276;-79
2021/05/09 05:59:34;;;;;;;1.30;1.20;;;;;;;13.50;53.10;99739.03;5089007;28;20672;-79
2021/05/09 06:02:00;;;;;;;2.10;1.10;;;;;;;13.59;53.21;99738.63;5087520;28;20257;-79
2021/05/09 06:04:26;;;;;;;1.80;1.20;;;;;;;13.68;52.63;99748.72;5087354;28;20699;-78
2021/05/09 06:06:52;;;;;;;1.07;1.00;;;;;;;13.76;52.71;99743.16;5087676;28;20306;-79
2021/05/09 06:09:18;;;;;;;2.00;1.20;;;;;;;13.81;53.09;99738.53;5088221;28;20479;-79
2021/05/09 06:11:45;;;;;;;1.73;1.20;;;;;;;13.85;53.40;99739.25;5087723;28;20692;-80
2021/05/09 06:14:10;;;;;;;1.70;1.00;;;;;;;13.93;53.23;99737.16;5086861;28;20682;-79
2021/05/09 06:16:36;;;;;;;1.20;1.10;;;;;;;13.99;51.64;99741.28;5088092;28;20261;-79
2021/05/09 06:19:02;;;;;;;1.20;1.10;;;;;;;14.07;51.40;99747.91;5086976;28;20256;-79
2021/05/09 06:21:28;;;;;;;1.30;1.10;;;;;;;14.12;52.72;99750.31;5087585;28;20247;-79
2021/05/09 06:23:54;;;;;;;1.10;1.10;;;;;;;14.17;52.97;99742.22;5087563;28;20680;-80
2021/05/09 06:26:20;;;;;;;1.50;1.07;;;;;;;14.25;51.79;99748.84;5087705;28;20211;-81
2021/05/09 06:28:48;;;;;;;2.80;1.40;;;;;;;14.36;51.51;99744.88;5088150;28;20713;-79
2021/05/09 06:31:14;;;;;;;1.10;1.00;;;;;;;14.39;52.50;99747.34;5088264;28;20218;-80
2021/05/09 06:33:40;;;;;;;1.87;1.20;;;;;;;14.44;51.85;99743.59;5086605;28;20629;-80
2021/05/09 06:36:06;;;;;;;1.30;1.00;;;;;;;14.55;51.74;99751.00;5087672;28;20216;-78
2021/05/09 06:38:32;;;;;;;1.50;1.40;;;;;;;14.64;51.21;99747.13;5088160;28;20224;-81
2021/05/09 06:40:58;;;;;;;1.20;1.10;;;;;;;14.73;52.11;99754.56;5088397;28;20769;-80
2021/05/09 06:43:24;;;;;;;1.13;1.10;;;;;;;14.80;52.56;99749.88;5085664;28;20262;-79
2021/05/09 06:45:51;;;;;;;2.00;1.30;;;;;;;14.86;51.96;99755.66;5088282;28;20730;-80
2021/05/09 06:48:17;;;;;;;1.77;1.30;;;;;;;14.91;52.40;99752.00;5087038;28;20227;-80
2021/05/09 06:50:43;;;;;;;2.30;1.40;;;;;;;15.02;52.02;99739.16;5088032;28;20751;-80
2021/05/09 06:53:09;;;;;;;1.30;1.00;;;;;;;15.11;52.43;99743.16;5087450;28;20249;-80
2021/05/09 06:55:35;;;;;;;2.03;1.00;;;;;;;15.24;53.15;99760.88;5086968;28;20281;-79
2021/05/09 06:58:01;;;;;;;1.13;1.07;;;;;;;15.33;52.04;99758.72;5087755;28;20283;-81
2021/05/09 07:00:27;;;;;;;1.13;1.03;;;;;;;15.37;52.77;99769.00;5087476;28;20199;-80
2021/05/09 07:02:54;;;;;;;2.60;1.00;;;;;;;15.52;51.36;99766.53;5087160;28;20706;-81
2021/05/09 07:05:20;;;;;;;1.90;1.00;;;;;;;15.57;50.81;99759.25;5087658;28;20208;-80
2021/05/09 07:07:47;;;;;;;1.10;0.93;;;;;;;15.63;52.21;99749.28;5086737;28;20254;-80
2021/05/09 07:10:13;;;;;;;1.30;1.20;;;;;;;15.71;52.07;99754.16;5087324;28;20893;-79
2021/05/09 07:12:39;;;;;;;1.33;0.93;;;;;;;15.89;51.09;99755.84;5087431;28;20244;-79
2021/05/09 07:15:06;;;;;;;1.90;1.10;;;;;;;16.08;49.77;99758.38;5087112;28;20232;-80
2021/05/09 07:17:32;;;;;;;2.63;1.10;;;;;;;16.23;50.79;99753.22;5086295;28;20753;-79
2021/05/09 07:19:59;;;;;;;1.37;0.90;;;;;;;16.30;49.69;99757.25;5086180;28;20204;-80
2021/05/09 07:22:28;;;;;;;1.27;1.10;;;;;;;16.35;50.57;99757.84;5086659;28;20255;-80
2021/05/09 07:24:54;;;;;;;1.30;1.20;;;;;;;16.48;49.20;99756.25;5085458;28;20578;-80
2021/05/09 07:27:20;;;;;;;1.23;1.00;;;;;;;16.63;50.16;99757.19;5086622;28;20258;-81
2021/05/09 07:29:47;;;;;;;1.00;1.00;;;;;;;16.77;50.03;99745.91;5085456;28;20226;-80
2021/05/09 07:32:13;;;;;;;1.17;1.00;;;;;;;16.82;49.69;99745.66;5086299;28;20728;-79
2021/05/09 07:34:39;;;;;;;1.50;1.00;;;;;;;16.90;50.24;99753.97;5087066;28;20213;-81
2021/05/09 07:37:06;;;;;;;1.53;1.00;;;;;;;17.01;51.38;99745.50;5086276;28;20277;-80
2021/05/09 07:39:31;;;;;;;0.77;0.73;;;;;;;17.15;50.12;99748.19;5086092;28;20235;-80
2021/05/09 07:41:57;;;;;;;2.10;1.00;;;;;;;17.27;51.06;99739.56;5086486;28;20238;-80
2021/05/09 07:44:23;;;;;;;1.90;1.10;;;;;;;17.25;50.43;99736.16;5084238;28;20263;-80
2021/05/09 07:46:52;;;;;;;1.30;1.20;;;;;;;17.39;50.29;99735.34;5084848;28;20215;-79
2021/05/09 07:49:17;;;;;;;0.90;0.90;;;;;;;17.45;49.98;99728.88;5084691;28;20210;-80
2021/05/09 07:51:43;;;;;;;3.20;1.00;;;;;;;17.52;50.13;99729.34;5085866;28;20954;-79
2021/05/09 07:54:10;;;;;;;1.23;1.00;;;;;;;17.53;50.20;99723.16;5085685;28;20201;-78
2021/05/09 07:56:37;;;;;;;2.37;0.97;;;;;;;17.51;50.46;99720.59;5085787;28;20213;-79
2021/05/09 07:59:03;;;;;;;1.27;1.17;;;;;;;17.67;49.02;99720.53;5085146;28;20239;-78
2021/05/09 08:01:29;;;;;;;1.00;0.90;;;;;;;17.85;49.73;99721.22;5085056;28;20224;-78
2021/05/09 08:03:55;;;;;;;1.47;1.20;;;;;;;17.89;48.89;99725.38;5084828;28;20249;-79
2021/05/09 08:06:21;;;;;;;0.90;0.90;;;;;;;17.93;50.19;99726.91;5085740;28;20212;-78
2021/05/09 08:08:47;;;;;;;1.10;1.00;;;;;;;18.01;48.00;99719.34;5085248;28;20780;-79
2021/05/09 08:11:14;;;;;;;2.00;1.00;;;;;;;18.02;47.59;99720.22;5085525;28;20687;-79
2021/05/09 08:13:40;;;;;;;1.10;1.00;;;;;;;18.08;48.76;99725.13;5084246;28;20241;-78
2021/05/09 08:16:06;;;;;;;2.07;0.93;;;;;;;18.14;48.04;99718.63;5084653;28;20210;-78
2021/05/09 08:18:32;;;;;;;1.20;1.10;;;;;;;18.24;48.33;99720.56;5084017;28;20226;-78
2021/05/09 08:21:01;;;;;;;1.10;1.10;;;;;;;18.35;48.36;99711.13;5084217;28;21167;-79
2021/05/09 08:23:27;;;;;;;1.07;0.90;;;;;;;18.37;47.54;99704.78;5083709;28;20235;-78
2021/05/09 08:25:53;;;;;;;3.07;1.10;;;;;;;18.42;47.22;99699.22;5084833;28;20208;-78
2021/05/09 08:28:19;;;;;;;1.30;1.20;;;;;;;18.52;48.67;99702.16;5084057;28;20594;-78
2021/05/09 08:30:45;;;;;;;2.40;1.07;;;;;;;18.59;48.34;99690.22;5083933;28;20313;-78
2021/05/09 08:33:11;;;;;;;1.20;1.00;;;;;;;18.73;47.33;99686.69;5082327;28;20215;-78
2021/05/09 08:35:37;;;;;;;1.37;0.90;;;;;;;18.82;46.87;99681.66;5083403;28;20202;-78
2021/05/09 08:38:05;;;;;;;0.80;0.80;;;;;;;18.89;46.87;99684.78;5083285;28;20250;-77
2021/05/09 08:40:31;;;;;;;2.03;1.10;;;;;;;18.91;47.41;99687.31;5083227;28;20217;-79
2021/05/09 08:42:57;;;;;;;1.60;1.00;;;;;;;18.98;47.50;99684.16;5085228;28;20378;-78
2021/05/09 08:45:24;;;;;;;1.70;1.13;;;;;;;19.09;46.71;99686.09;5086336;28;20258;-78
2021/05/09 08:47:53;;;;;;;2.77;1.20;;;;;;;19.20;47.21;99682.72;5085505;28;20250;-78
2021/05/09 08:50:20;;;;;;;1.23;1.00;;;;;;;19.29;47.36;99687.41;5084574;28;20205;-77
2021/05/09 08:52:48;;;;;;;0.80;0.80;;;;;;;19.38;46.55;99668.25;5086708;28;20221;-79
2021/05/09 08:55:16;;;;;;;1.10;1.00;;;;;;;19.43;46.57;99681.19;5086409;28;20211;-78
2021/05/09 08:57:42;;;;;;;1.77;1.10;;;;;;;19.60;46.29;99674.72;5087040;28;20254;-78
2021/05/09 09:00:10;;;;;;;1.80;1.27;;;;;;;19.63;47.31;99669.25;5087152;28;20281;-78
2021/05/09 09:02:39;;;;;;;1.77;1.00;;;;;;;19.65;46.38;99664.69;5086674;28;20664;-77
2021/05/09 09:05:05;;;;;;;1.10;1.00;;;;;;;19.73;46.38;99669.47;5086051;28;20933;-77
2021/05/09 09:07:44;;;;;;;1.53;1.10;;;;;;;19.82;46.45;99658.22;5086732;28;20272;-78
2021/05/09 09:10:11;;;;;;;1.33;1.00;;;;;;;19.94;45.02;99660.03;5087271;28;20205;-78
2021/05/09 09:12:38;;;;;;;1.10;0.93;;;;;;;19.98;45.04;99655.34;5085450;28;20341;-77
2021/05/09 09:15:05;;;;;;;0.97;0.97;;;;;;;20.10;45.01;99656.28;5086618;28;20712;-78
2021/05/09 09:17:31;;;;;;;1.50;1.00;;;;;;;20.18;45.33;99638.06;5086258;28;20303;-77
2021/05/09 09:20:03;;;;;;;3.40;1.00;;;;;;;20.19;44.41;99645.03;5085893;28;20697;-78
2021/05/09 09:22:53;;;;;;;1.20;1.10;;;;;;;20.20;45.84;99649.41;5087173;28;20237;-78
2021/05/09 09:25:20;;;;;;;1.57;1.00;;;;;;;20.18;45.55;99641.53;5086100;28;20838;-79
2021/05/09 09:27:48;;;;;;;1.00;1.00;;;;;;;20.30;45.60;99644.28;5086751;28;20268;-78
2021/05/09 09:30:16;;;;;;;0.93;0.90;;;;;;;20.37;44.27;99645.50;5086381;28;20495;-78
2021/05/09 09:32:42;;;;;;;1.83;1.30;;;;;;;20.48;45.57;99629.69;5085250;28;20651;-75
2021/05/09 09:35:27;;;;;;;2.53;1.00;;;;;;;20.61;45.55;99630.50;5085052;28;20239;-77
2021/05/09 09:37:53;;;;;;;0.80;0.80;;;;;;;20.76;44.93;99627.69;5083671;28;20273;-78
2021/05/09 09:40:18;;;;;;;0.90;0.90;;;;;;;20.97;42.98;99626.06;5084943;28;20208;-78
2021/05/09 09:42:47;;;;;;;1.00;0.90;;;;;;;21.03;43.86;99622.13;5084715;28;20296;-78
2021/05/09 09:45:14;;;;;;;1.10;1.03;;;;;;;21.09;44.98;99618.13;5085547;28;20215;-78
2021/05/09 09:47:47;;;;;;;1.50;1.03;;;;;;;21.21;42.51;99604.78;5086514;28;20254;-78
2021/05/09 09:50:35;;;;;;;0.93;0.90;;;;;;;21.33;44.04;99610.94;5085781;28;20561;-79
2021/05/09 09:53:01;;;;;;;3.03;1.40;;;;;;;21.42;41.76;99593.44;5086192;28;20211;-79
2021/05/09 09:55:27;;;;;;;1.43;1.20;;;;;;;21.45;44.32;99593.25;5086115;28;20656;-78
2021/05/09 09:58:01;;;;;;;1.20;1.10;;;;;;;21.51;43.36;99600.75;5086693;28;20235;-78
2021/05/09 10:00:27;;;;;;;1.20;1.10;;;;;;;21.58;44.08;99603.75;5086351;28;20291;-78
2021/05/09 10:02:55;;;;;;;1.20;1.07;;;;;;;21.61;44.10;99596.41;5085800;28;20231;-78
2021/05/09 10:05:20;;;;;;;1.63;1.10;;;;;;;21.65;43.29;99586.38;5085517;28;20218;-78
2021/05/09 10:07:47;;;;;;;2.37;1.10;;;;;;;21.65;43.09;99586.38;5085733;28;20235;-78
2021/05/09 10:10:14;;;;;;;1.37;1.03;;;;;;;21.73;42.07;99591.94;5086599;28;21258;-78
2021/05/09 10:12:40;;;;;;;1.20;1.10;;;;;;;21.85;40.70;99583.97;5084845;28;20215;-77
2021/05/09 10:15:08;;;;;;;1.17;1.00;;;;;;;21.92;40.07;99580.69;5085161;28;20258;-78
2021/05/09 10:17:36;;;;;;;1.30;1.20;;;;;;;22.07;40.12;99564.47;5084396;28;20256;-78
2021/05/09 10:20:04;;;;;;;2.17;1.07;;;;;;;22.16;43.76;99575.22;5084961;28;20219;-78
2021/05/09 10:22:32;;;;;;;1.20;1.10;;;;;;;22.23;43.56;99569.41;5086109;28;20308;-79
2021/05/09 10:24:59;;;;;;;1.30;1.20;;;;;;;22.30;44.72;99566.16;5084869;28;20207;-77
2021/05/09 10:27:35;;;;;;;1.30;1.00;;;;;;;22.36;43.77;99565.63;5085186;28;20226;-77
2021/05/09 10:30:01;;;;;;;1.50;1.10;;;;;;;22.47;41.94;99569.22;5084909;28;20212;-78
2021/05/09 10:32:50;;;;;;;1.67;1.10;;;;;;;22.51;41.04;99565.34;5085619;28;20317;-78
2021/05/09 10:35:33;;;;;;;1.10;1.10;;;;;;;22.58;40.73;99562.03;5084509;28;20227;-78
2021/05/09 10:38:04;;;;;;;1.20;1.20;;;;;;;22.48;39.50;99566.44;5084414;28;20219;-77
2021/05/09 10:40:34;;;;;;;1.20;1.10;;;;;;;22.59;41.26;99565.53;5084911;28;20210;-77
2021/05/09 10:43:37;;;;;;;1.60;1.30;;;;;;;22.73;45.22;99564.38;5084587;28;20633;-78
2021/05/09 10:46:04;;;;;;;1.20;1.10;;;;;;;22.87;44.18;99558.75;5085033;28;20624;-77
2021/05/09 10:48:32;;;;;;;1.20;1.20;;;;;;;22.99;40.59;99552.41;5084340;28;20725;-77
2021/05/09 10:51:24;;;;;;;1.73;1.30;;;;;;;23.05;40.96;99551.03;5084800;28;20244;-78
2021/05/09 10:53:49;;;;;;;1.20;1.10;;;;;;;23.16;40.15;99553.63;5083277;28;20860;-77
2021/05/09 10:56:32;;;;;;;3.37;1.50;;;;;;;23.39;42.10;99541.00;5083757;28;20210;-76
2021/05/09 10:58:58;;;;;;;1.63;1.10;;;;;;;23.60;39.72;99540.94;5086020;28;20238;-77
2021/05/09 11:01:26;;;;;;;1.30;1.20;;;;;;;23.74;41.45;99531.72;5083714;28;20204;-77
2021/05/09 11:03:54;;;;;;;1.47;1.30;;;;;;;23.89;42.20;99518.91;5082980;28;20741;-78
2021/05/09 11:06:34;;;;;;;1.20;1.20;;;;;;;24.01;41.46;99522.28;5083041;28;20537;-77
2021/05/09 11:09:02;;;;;;;1.37;1.27;;;;;;;24.19;41.45;99515.28;5083783;28;20520;-76
2021/05/09 11:12:02;;;;;;;1.60;1.20;;;;;;;24.36;40.48;99504.91;5083588;28;20206;-76
2021/05/09 11:14:38;;;;;;;1.73;1.50;;;;;;;24.52;43.61;99512.41;5082674;28;20281;-78
2021/05/09 11:17:07;;;;;;;1.67;1.23;;;;;;;24.57;41.44;99507.47;5084546;28;20239;-78
2021/05/09 11:19:52;;;;;;;3.23;1.70;;;;;;;24.70;40.85;99508.00;5084551;28;20244;-78
2021/05/09 11:22:23;;;;;;;2.47;1.20;;;;;;;24.93;40.39;99497.81;5084788;28;20309;-78
2021/05/09 11:24:58;;;;;;;1.33;1.23;;;;;;;25.28;38.69;99492.84;5084613;28;20208;-79
2021/05/09 11:27:25;;;;;;;1.67;1.50;;;;;;;25.57;37.88;99487.38;5084656;28;20433;-77
2021/05/09 11:29:52;;;;;;;1.20;1.20;;;;;;;26.22;37.06;99481.88;5085128;28;21004;-79
2021/05/09 11:32:20;;;;;;;1.43;1.33;;;;;;;27.50;35.18;99477.72;5086644;28;20212;-78
2021/05/09 11:34:57;;;;;;;1.37;1.30;;;;;;;28.89;34.65;99470.84;5085685;28;20252;-80